Дата Время Давление Темп. Влажн. Скор.ветра Напр.ветра Макс.ветер Осадки/час Осадки
23.06.24 05:00 741.1 12.6 90.4 0.8 194 1.6 0 0
23.06.24 04:00 741.3 12.2 90.5 0.6 0 1.3 0 0
23.06.24 03:00 741.5 12.5 89.4 0.7 225 1.2 0 0
23.06.24 02:00 741.4 12.9 87.1 0.6 0 1.2 0 0
23.06.24 01:00 741.6 13.6 84.3 0 0 0 0 0
23.06.24 00:00 741.4 14.7 79.6 0.6 0 1.2 0 0
22.06.24 23:00 741.5 15.8 75.7 0 0 0 0 0
22.06.24 22:00 741.7 17.8 64.3 0.6 0 1.1 0 0
22.06.24 21:00 741.5 19.9 53.9 0.6 0 2 0 0
22.06.24 20:00 741.4 22.7 46.4 0.6 53 3.4 0 0
22.06.24 19:00 740.9 25 39.6 0.7 31 3.5 0 0
22.06.24 18:00 740.2 25.6 37.9 0.8 317 4.4 0 0
22.06.24 17:00 740.1 25.5 37.3 1.3 352 6.3 0 0
22.06.24 16:00 740.1 25.2 37.9 0.7 335 5.7 0 0
22.06.24 15:00 740.8 24.1 40.5 1.2 18 4.1 0 0
22.06.24 14:00 739.8 25.5 39.7 0.8 13 6.2 0 0
22.06.24 13:00 741 22.7 45.6 0.9 330 4.3 0 0
22.06.24 12:00 740.5 23.2 49 1.2 349 4.9 0 0
22.06.24 11:00 739.8 23.4 48.2 0.7 15 5 0 0
22.06.24 10:00 740.3 22.2 53 0.9 341 3.8 0 0
22.06.24 09:00 740 21.2 59.4 0.6 79 3.7 0 0
22.06.24 08:00 742.1 17 72.9 1.1 14 3.2 0 0
22.06.24 07:00 742.1 15.6 77 0.8 28 3.8 0 0
22.06.24 06:00 742.2 14.5 80.1 1.1 34 3.4 0 0